Time;durP1;ratioP1;P1;durP2;ratioP2;P2;SDS_P1;SDS_P2;PMS_P1;PMS_P2;Temp;Humidity;BMP_temperature;BMP_pressure;BME280_temperature;BME280_humidity;BME280_pressure;Samples;Min_cycle;Max_cycle;Signal;HPM_P1;HPM_P2
2023/12/20 00:01:06;;;;;;;;;;;;;;;3.57;67.28;98001.53;4503789;31;20076;-79
2023/12/20 00:03:33;;;;;;;150.90;29.15;;;;;;;3.51;67.08;98001.66;4503248;31;19972;-79
2023/12/20 00:06:08;;;;;;;140.00;28.08;;;;;;;3.29;67.34;97990.06;4503499;31;20091;-78
2023/12/20 00:08:36;;;;;;;133.18;26.58;;;;;;;3.32;66.90;97990.03;4489293;31;20102;-78
2023/12/20 00:11:03;;;;;;;102.43;26.10;;;;;;;3.34;66.43;97991.69;4503099;31;20148;-79
2023/12/20 00:13:29;;;;;;;90.93;25.15;;;;;;;3.31;65.92;97989.19;4503524;31;20096;-78
2023/12/20 00:15:56;;;;;;;108.57;27.08;;;;;;;3.30;66.03;97984.97;4502994;31;20099;-79
2023/12/20 00:18:23;;;;;;;;;;;;;;;2.45;68.98;97986.94;4503931;31;20155;-78
2023/12/20 00:20:50;;;;;;;84.57;24.55;;;;;;;1.41;73.85;97982.81;4503547;31;20013;-78
2023/12/20 00:23:17;;;;;;;84.35;22.30;;;;;;;2.22;71.28;97981.22;4503024;31;20096;-78
2023/12/20 00:25:44;;;;;;;84.25;22.75;;;;;;;2.03;71.66;97971.25;4503285;31;20130;-78
2023/12/20 00:28:11;;;;;;;77.22;21.98;;;;;;;1.52;74.87;97975.09;4503233;31;20075;-78
2023/12/20 00:30:38;;;;;;;100.60;24.75;;;;;;;1.66;74.31;97975.81;4502817;31;20143;-78
2023/12/20 00:33:05;;;;;;;76.87;24.30;;;;;;;1.30;76.83;97969.34;4503262;31;20129;-78
2023/12/20 00:35:32;;;;;;;98.70;23.87;;;;;;;1.39;76.29;97964.19;4503179;31;20084;-78
2023/12/20 00:37:59;;;;;;;75.07;22.83;;;;;;;1.64;75.35;97954.66;4502350;31;20099;-78
2023/12/20 00:40:26;;;;;;;78.37;22.27;;;;;;;1.57;74.71;97950.47;4503183;31;20110;-78
2023/12/20 00:42:53;;;;;;;93.90;24.17;;;;;;;1.96;73.78;97945.88;4503289;31;20111;-78
2023/12/20 00:45:20;;;;;;;;;;;;;;;2.05;72.35;97943.25;4503110;31;20122;-79
2023/12/20 00:47:47;;;;;;;94.37;21.77;;;;;;;2.23;72.36;97944.72;4503420;31;19967;-78
2023/12/20 00:50:14;;;;;;;70.97;20.90;;;;;;;1.93;72.83;97930.66;4502989;31;20106;-78
2023/12/20 00:52:41;;;;;;;101.45;22.67;;;;;;;0.63;77.36;97924.00;4502812;31;20092;-78
2023/12/20 00:55:08;;;;;;;;;;;;;;;1.81;74.15;97926.53;4503538;31;20104;-78
2023/12/20 00:57:35;;;;;;;106.10;22.15;;;;;;;1.56;74.74;97930.13;4503156;31;20042;-78
2023/12/20 01:00:02;;;;;;;127.40;23.67;;;;;;;2.49;70.94;97921.50;4502609;31;20095;-78
2023/12/20 01:02:29;;;;;;;131.73;23.65;;;;;;;2.61;70.18;97918.81;4503014;31;20115;-78
2023/12/20 01:04:56;;;;;;;68.55;18.55;;;;;;;2.75;68.71;97918.59;4503034;31;20105;-78
2023/12/20 01:07:22;;;;;;;;;;;;;;;3.14;67.60;97912.94;4489483;31;20125;-78
2023/12/20 01:09:49;;;;;;;75.55;19.42;;;;;;;3.39;65.36;97910.00;4488531;31;19968;-78
2023/12/20 01:12:16;;;;;;;84.97;18.95;;;;;;;1.81;68.76;97912.94;4502583;31;20084;-78
2023/12/20 01:14:43;;;;;;;114.93;20.75;;;;;;;1.30;73.89;97913.41;4503032;31;20103;-78
2023/12/20 01:17:10;;;;;;;64.60;19.27;;;;;;;0.97;76.49;97908.59;4502776;31;20088;-78
2023/12/20 01:19:37;;;;;;;63.90;19.90;;;;;;;0.24;79.07;97907.28;4488088;31;20136;-78
2023/12/20 01:22:04;;;;;;;88.72;19.67;;;;;;;0.39;79.38;97902.12;4502923;31;20164;-78
2023/12/20 01:24:31;;;;;;;101.85;20.75;;;;;;;0.55;81.04;97895.31;4502867;31;20426;-78
2023/12/20 01:26:58;;;;;;;102.30;22.80;;;;;;;0.45;79.23;97891.97;4502242;31;20438;-78
2023/12/20 01:29:25;;;;;;;95.55;22.35;;;;;;;0.28;79.30;97891.19;4502449;31;20106;-78
2023/12/20 01:31:52;;;;;;;93.37;22.40;;;;;;;1.14;76.27;97894.03;4502535;31;20108;-78
2023/12/20 01:34:19;;;;;;;91.25;21.25;;;;;;;1.79;73.90;97887.50;4488178;31;20130;-78
2023/12/20 01:36:46;;;;;;;95.15;23.48;;;;;;;0.45;78.22;97896.19;4502466;31;20107;-78
2023/12/20 01:39:13;;;;;;;105.03;24.40;;;;;;;1.30;75.78;97882.91;4502456;31;20076;-78
2023/12/20 01:41:53;;;;;;;93.20;24.15;;;;;;;1.58;74.41;97880.09;4502341;31;20100;-79
2023/12/20 01:44:20;;;;;;;82.57;21.87;;;;;;;1.35;73.36;97868.44;4502469;31;20102;-78
2023/12/20 01:46:47;;;;;;;98.62;24.52;;;;;;;0.83;76.53;97868.03;4502254;31;20151;-78
2023/12/20 01:49:15;;;;;;;97.07;22.30;;;;;;;1.97;72.10;97864.44;4502060;31;20088;-79
2023/12/20 01:51:43;;;;;;;69.35;21.45;;;;;;;2.79;67.71;97857.41;4504252;31;20119;-78
2023/12/20 01:54:10;;;;;;;77.20;22.20;;;;;;;2.76;65.95;97859.16;4504148;31;20114;-78
2023/12/20 01:56:37;;;;;;;101.70;23.25;;;;;;;2.50;68.40;97856.97;4504245;31;20088;-78
2023/12/20 01:59:04;;;;;;;73.55;21.75;;;;;;;2.80;67.71;97846.34;4490270;31;20106;-78
2023/12/20 02:01:31;;;;;;;91.28;21.67;;;;;;;2.80;66.88;97836.16;4489812;31;20431;-79
2023/12/20 02:03:59;;;;;;;83.20;22.58;;;;;;;3.14;65.97;97826.25;4504319;31;20088;-78
2023/12/20 02:06:30;;;;;;;56.70;20.00;;;;;;;3.34;64.63;97820.00;4504193;31;20102;-78
2023/12/20 02:08:58;;;;;;;74.45;20.75;;;;;;;3.29;64.48;97816.66;4504155;31;20149;-79
2023/12/20 02:11:26;;;;;;;70.60;20.62;;;;;;;3.97;61.98;97817.09;4489902;31;20151;-78
2023/12/20 02:13:53;;;;;;;60.83;20.17;;;;;;;3.58;63.04;97795.75;4504323;31;20095;-78
2023/12/20 02:16:21;;;;;;;90.20;22.20;;;;;;;3.82;61.59;97807.19;4476507;31;20096;-79
2023/12/20 02:18:48;;;;;;;85.07;21.85;;;;;;;2.69;63.81;97804.06;4504258;31;20144;-79
2023/12/20 02:21:15;;;;;;;80.22;21.77;;;;;;;3.63;61.93;97794.78;4489985;31;20156;-78
2023/12/20 02:23:42;;;;;;;111.10;23.33;;;;;;;3.33;62.41;97798.75;4503993;31;20083;-79
2023/12/20 02:26:09;;;;;;;95.40;23.75;;;;;;;3.03;63.43;97789.91;4504058;31;20818;-78
2023/12/20 02:28:39;;;;;;;73.28;21.33;;;;;;;2.89;63.48;97787.59;4489976;31;20072;-78
2023/12/20 02:31:06;;;;;;;75.40;20.73;;;;;;;2.56;65.42;97788.97;4503717;31;20149;-79
2023/12/20 02:33:33;;;;;;;81.57;20.92;;;;;;;2.18;67.09;97788.66;4504185;31;20114;-79
2023/12/20 02:36:00;;;;;;;57.58;19.85;;;;;;;1.76;68.81;97787.50;4503960;31;20192;-80
2023/12/20 02:38:27;;;;;;;53.03;18.67;;;;;;;2.31;67.23;97780.00;4503936;31;20139;-80
2023/12/20 02:40:53;;;;;;;;;;;;;;;0.74;72.27;97777.50;4504392;31;20096;-79
2023/12/20 02:43:20;;;;;;;45.92;18.02;;;;;;;0.58;74.61;97789.47;4503905;31;19971;-79
2023/12/20 02:45:47;;;;;;;68.80;19.02;;;;;;;0.26;75.54;97778.72;4504077;31;20117;-79
2023/12/20 02:48:14;;;;;;;80.55;18.90;;;;;;;0.57;75.66;97777.66;4504160;31;20098;-79
2023/12/20 02:50:41;;;;;;;74.62;18.25;;;;;;;-0.13;79.86;97783.13;4503480;31;20088;-79
2023/12/20 02:53:08;;;;;;;;;;;;;;;0.09;80.25;97783.03;4504390;31;20140;-79
2023/12/20 02:55:35;;;;;;;81.35;19.12;;;;;;;0.39;78.88;97782.00;4504001;31;20030;-79
2023/12/20 02:58:01;;;;;;;;;;;;;;;-0.35;83.12;97777.31;4504013;31;20474;-79
2023/12/20 03:00:29;;;;;;;129.68;21.40;;;;;;;-0.15;83.51;97779.75;4503660;31;19963;-79
2023/12/20 03:02:56;;;;;;;141.85;22.85;;;;;;;0.49;80.15;97776.00;4503986;31;20149;-79
2023/12/20 03:05:22;;;;;;;127.15;20.50;;;;;;;-0.36;82.27;97772.25;4503555;31;20488;-79
2023/12/20 03:07:49;;;;;;;160.68;24.37;;;;;;;0.94;77.38;97759.56;4503862;31;20098;-79
2023/12/20 03:10:16;;;;;;;;;;;;;;;-0.06;81.30;97759.44;4504004;31;20118;-79
2023/12/20 03:12:52;;;;;;;135.63;19.00;;;;;;;-0.14;83.93;97763.69;4503779;31;19975;-79
2023/12/20 03:15:19;;;;;;;150.93;21.77;;;;;;;-0.28;83.93;97759.56;4503917;31;20482;-79
2023/12/20 03:17:46;;;;;;;195.40;26.25;;;;;;;-0.87;87.55;97753.81;4503836;31;20087;-79
2023/12/20 03:20:13;;;;;;;207.52;25.77;;;;;;;-1.08;88.77;97761.47;4503321;31;20100;-79
2023/12/20 03:22:40;;;;;;;247.48;27.83;;;;;;;-0.62;86.37;97759.69;4503771;31;20434;-79
2023/12/20 03:25:07;;;;;;;223.70;27.75;;;;;;;-0.80;87.30;97768.16;4503814;31;20211;-79
2023/12/20 03:27:38;;;;;;;265.45;29.55;;;;;;;-0.21;84.45;97766.25;4503348;31;20084;-79
2023/12/20 03:30:06;;;;;;;197.90;25.77;;;;;;;-0.31;82.81;97760.41;4503466;31;20100;-79
2023/12/20 03:32:33;;;;;;;201.82;24.87;;;;;;;-0.70;82.57;97754.63;4503400;31;20734;-79
2023/12/20 03:35:00;;;;;;;242.18;27.10;;;;;;;0.45;79.48;97752.34;4503594;31;20092;-79
2023/12/20 03:37:28;;;;;;;208.10;26.48;;;;;;;0.62;77.90;97749.66;4489736;31;20195;-79
2023/12/20 03:39:55;;;;;;;163.10;23.80;;;;;;;0.54;79.57;97759.91;4503291;31;20157;-79
2023/12/20 03:42:21;;;;;;;226.82;25.77;;;;;;;0.33;80.77;97749.06;4503770;31;20472;-79
2023/12/20 03:44:49;;;;;;;178.95;23.75;;;;;;;1.05;77.21;97736.59;4503623;31;20435;-79
2023/12/20 03:47:15;;;;;;;;;;;;;;;0.71;79.18;97743.69;4503715;31;20097;-80
2023/12/20 03:49:42;;;;;;;187.62;22.55;;;;;;;1.30;75.41;97742.28;4503741;31;20020;-79
2023/12/20 03:52:09;;;;;;;185.45;23.70;;;;;;;0.85;76.49;97749.47;4503537;31;20114;-79
2023/12/20 03:54:36;;;;;;;218.85;26.08;;;;;;;0.84;75.57;97746.09;4503181;31;20091;-79
2023/12/20 03:57:03;;;;;;;179.35;25.12;;;;;;;1.58;72.75;97736.00;4503551;31;20122;-79
2023/12/20 03:59:34;;;;;;;165.90;22.90;;;;;;;2.17;70.53;97721.66;4503570;31;20103;-79
2023/12/20 04:02:02;;;;;;;123.05;22.65;;;;;;;2.32;66.54;97713.78;4503226;31;20110;-80
2023/12/20 04:04:28;;;;;;;126.55;20.50;;;;;;;2.73;67.13;97719.06;4503510;31;20099;-79
2023/12/20 04:06:55;;;;;;;125.12;21.92;;;;;;;2.71;67.59;97721.66;4503481;31;20133;-79
2023/12/20 04:09:22;;;;;;;119.37;21.87;;;;;;;2.43;67.71;97728.88;4488810;31;20553;-80
2023/12/20 04:11:49;;;;;;;113.30;22.02;;;;;;;3.06;64.63;97725.28;4503163;31;20521;-79
2023/12/20 04:14:16;;;;;;;93.18;19.92;;;;;;;2.50;66.14;97719.47;4502760;31;20166;-79
2023/12/20 04:16:43;;;;;;;;;;;;;;;2.72;65.39;97722.50;4488916;31;20468;-79
2023/12/20 04:19:13;;;;;;;109.10;20.02;;;;;;;3.19;63.19;97716.56;4503526;31;19994;-79
2023/12/20 04:21:40;;;;;;;77.85;20.88;;;;;;;2.66;64.98;97710.72;4503071;31;20454;-80
2023/12/20 04:24:08;;;;;;;96.07;20.77;;;;;;;2.60;65.40;97708.25;4503376;31;20084;-79
2023/12/20 04:26:35;;;;;;;110.47;20.92;;;;;;;2.06;66.79;97723.50;4503273;31;20095;-79
2023/12/20 04:29:02;;;;;;;109.55;21.87;;;;;;;2.28;66.09;97721.50;4488576;31;20115;-80
2023/12/20 04:31:29;;;;;;;71.03;19.08;;;;;;;1.63;69.11;97724.09;4503222;31;20108;-80
2023/12/20 04:33:55;;;;;;;78.72;19.58;;;;;;;1.41;69.82;97720.97;4503376;31;20498;-79
2023/12/20 04:36:22;;;;;;;99.35;22.62;;;;;;;0.94;71.70;97729.06;4502843;31;20114;-79
2023/12/20 04:38:49;;;;;;;115.50;22.23;;;;;;;1.55;69.97;97720.78;4503427;31;20112;-79
2023/12/20 04:41:18;;;;;;;64.72;19.83;;;;;;;2.05;68.06;97716.75;4503201;31;20100;-79
2023/12/20 04:43:45;;;;;;;75.68;19.70;;;;;;;2.41;66.71;97715.34;4502957;31;20104;-80
2023/12/20 04:46:12;;;;;;;51.53;19.08;;;;;;;3.07;64.37;97709.97;4503151;31;20423;-80
2023/12/20 04:48:39;;;;;;;42.00;18.17;;;;;;;2.96;62.51;97709.31;4503364;31;20100;-79
2023/12/20 04:51:06;;;;;;;43.75;19.48;;;;;;;2.46;62.56;97707.66;4502735;31;20104;-79
2023/12/20 04:53:33;;;;;;;44.25;17.52;;;;;;;2.84;62.07;97717.19;4503249;31;20084;-79
2023/12/20 04:55:59;;;;;;;;;;;;;;;2.60;63.83;97716.75;4503607;31;20118;-79
2023/12/20 04:58:26;;;;;;;37.50;16.85;;;;;;;2.95;62.57;97714.44;4502852;31;20332;-80
2023/12/20 05:00:53;;;;;;;65.70;20.58;;;;;;;2.88;62.64;97706.09;4503028;31;20144;-79
2023/12/20 05:03:20;;;;;;;59.20;22.17;;;;;;;3.02;62.04;97700.75;4503111;31;20445;-79
2023/12/20 05:05:48;;;;;;;81.03;25.42;;;;;;;2.92;62.67;97702.62;4502685;31;20081;-79
2023/12/20 05:08:15;;;;;;;92.93;30.27;;;;;;;3.49;61.05;97703.22;4488882;31;20171;-79
2023/12/20 05:10:42;;;;;;;85.22;33.15;;;;;;;3.40;61.71;97694.91;4502545;31;20114;-79
2023/12/20 05:13:08;;;;;;;;;;;;;;;3.44;61.86;97696.53;4503312;31;20442;-79
2023/12/20 05:15:35;;;;;;;84.32;32.20;;;;;;;2.80;64.66;97682.44;4502891;31;19983;-79
2023/12/20 05:18:02;;;;;;;;;;;;;;;3.13;63.83;97679.28;4503034;31;20422;-80
2023/12/20 05:20:29;;;;;;;79.70;32.17;;;;;;;2.38;65.83;97679.75;4502694;31;19986;-79
2023/12/20 05:22:56;;;;;;;63.15;29.42;;;;;;;3.07;63.81;97696.38;4502704;31;20387;-78
2023/12/20 05:25:23;;;;;;;60.47;25.55;;;;;;;3.32;62.49;97678.94;4502022;31;20438;-78
2023/12/20 05:27:50;;;;;;;49.33;23.02;;;;;;;3.58;61.26;97689.44;4502143;31;20119;-78
2023/12/20 05:38:51;;;;;;;40.55;16.85;;;;;;;1.52;65.56;97709.81;4800429;26;20511;-77
2023/12/20 05:41:17;;;;;;;44.50;18.90;;;;;;;1.68;64.62;97709.59;4439976;32;20825;-78
2023/12/20 05:43:44;;;;;;;;;;;;;;;2.21;64.21;97709.72;4440392;32;20131;-77
2023/12/20 05:46:12;;;;;;;41.28;18.15;;;;;;;2.26;63.51;97713.03;4439656;32;19973;-79
2023/12/20 05:48:39;;;;;;;45.38;18.02;;;;;;;2.79;62.46;97709.63;4440042;32;20093;-79
2023/12/20 05:51:06;;;;;;;45.35;18.67;;;;;;;1.67;67.18;97707.91;4439785;32;20157;-80
2023/12/20 05:53:33;;;;;;;44.40;18.40;;;;;;;1.79;65.55;97706.06;4439580;32;20090;-80
2023/12/20 05:56:00;;;;;;;;;;;;;;;2.05;66.11;97711.66;4440251;32;20081;-80
2023/12/20 05:58:27;;;;;;;39.35;16.90;;;;;;;0.01;72.98;97709.53;4439939;32;19977;-80
2023/12/20 06:00:54;;;;;;;43.63;16.42;;;;;;;1.46;70.66;97700.56;4439312;32;20105;-80
2023/12/20 06:03:21;;;;;;;43.20;16.58;;;;;;;0.82;72.94;97698.72;4439649;32;20138;-80
2023/12/20 06:05:48;;;;;;;44.15;16.65;;;;;;;1.17;72.10;97700.91;4425722;32;20078;-79
2023/12/20 06:08:15;;;;;;;40.80;16.37;;;;;;;2.36;67.32;97701.03;4439322;32;20147;-80
2023/12/20 06:10:41;;;;;;;46.10;18.65;;;;;;;1.39;69.33;97702.34;4439610;32;20097;-80
2023/12/20 06:13:08;;;;;;;;;;;;;;;1.85;67.81;97696.66;4440022;32;20487;-80
2023/12/20 06:15:35;;;;;;;44.47;15.95;;;;;;;2.31;66.80;97693.44;4439282;32;19979;-81
2023/12/20 06:18:03;;;;;;;39.10;16.50;;;;;;;2.38;67.04;97697.56;4439514;32;20093;-79
2023/12/20 06:20:30;;;;;;;55.08;18.17;;;;;;;2.72;64.79;97690.22;4439506;32;20455;-80
2023/12/20 06:22:57;;;;;;;44.83;17.65;;;;;;;2.68;64.92;97686.06;4439227;32;20078;-81
2023/12/20 06:25:24;;;;;;;;;;;;;;;3.52;61.67;97691.28;4439535;32;20141;-80
2023/12/20 06:27:51;;;;;;;43.70;17.75;;;;;;;3.48;61.67;97687.94;4438460;32;19996;-82
2023/12/20 06:30:18;;;;;;;39.53;18.02;;;;;;;3.62;59.98;97688.53;4439317;32;20146;-83
2023/12/20 06:32:46;;;;;;;;;;;;;;;3.40;60.18;97684.69;4439008;32;20085;-82
2023/12/20 06:35:13;;;;;;;46.30;19.20;;;;;;;3.77;58.91;97687.34;4438915;32;19977;-82
2023/12/20 06:37:42;;;;;;;43.92;19.98;;;;;;;2.72;61.60;97687.66;4441234;32;20112;-81
2023/12/20 06:40:10;;;;;;;46.20;19.50;;;;;;;2.67;60.96;97688.62;4441697;32;20485;-84
2023/12/20 06:42:44;;;;;;;44.08;18.67;;;;;;;2.16;62.54;97688.59;4441467;32;20542;-82
2023/12/20 06:45:24;;;;;;;47.58;20.25;;;;;;;1.62;64.03;97691.03;4445546;32;20073;-82
2023/12/20 06:47:51;;;;;;;48.15;19.25;;;;;;;0.92;67.81;97697.75;4443436;32;20471;-82
2023/12/20 06:50:18;;;;;;;45.22;17.73;;;;;;;1.23;67.58;97700.81;4443267;32;20105;-81
2023/12/20 06:52:45;;;;;;;51.45;19.98;;;;;;;1.53;66.87;97711.50;4441581;32;20089;-81
2023/12/20 06:55:12;;;;;;;52.33;21.30;;;;;;;2.39;64.42;97706.06;4441555;32;20125;-82
2023/12/20 06:57:39;;;;;;;48.53;20.08;;;;;;;2.50;63.34;97709.28;4441508;32;20165;-82
2023/12/20 07:00:06;;;;;;;;;;;;;;;2.95;61.71;97706.81;4442358;32;20445;-82
2023/12/20 07:02:33;;;;;;;48.40;18.10;;;;;;;2.88;62.15;97711.19;4443851;32;19969;-81
2023/12/20 07:04:59;;;;;;;;;;;;;;;2.83;62.53;97710.41;4446924;32;20078;-81
2023/12/20 07:07:26;;;;;;;49.53;19.45;;;;;;;3.45;60.29;97714.34;4445845;32;19949;-81
2023/12/20 07:09:53;;;;;;;60.22;23.05;;;;;;;3.06;61.15;97710.00;4443314;32;20133;-80
2023/12/20 07:12:20;;;;;;;57.38;22.00;;;;;;;3.42;60.67;97719.53;4442015;32;20107;-81
2023/12/20 07:14:47;;;;;;;;;;;;;;;3.04;61.43;97712.59;4442929;32;20158;-81
2023/12/20 07:17:15;;;;;;;45.40;18.50;;;;;;;3.53;63.36;97706.56;4442360;32;20417;-79
2023/12/20 07:19:42;;;;;;;37.63;16.42;;;;;;;4.22;62.98;97705.91;4442559;32;20097;-81
2023/12/20 07:22:09;;;;;;;39.85;16.70;;;;;;;4.53;64.07;97700.91;4444747;32;20089;-81
2023/12/20 07:24:36;;;;;;;41.17;19.27;;;;;;;5.46;63.70;97702.78;4443260;32;20160;-81
2023/12/20 07:27:03;;;;;;;45.83;20.80;;;;;;;6.41;60.74;97710.25;4442964;32;20448;-81
2023/12/20 07:29:29;;;;;;;48.92;23.80;;;;;;;6.93;58.34;97699.97;4443547;32;20089;-80
2023/12/20 07:31:56;;;;;;;;;;;;;;;7.49;56.33;97710.00;4446275;32;20164;-81
2023/12/20 07:34:23;;;;;;;71.07;32.58;;;;;;;8.29;52.44;97707.84;4444112;32;19964;-83
2023/12/20 07:36:50;;;;;;;88.65;39.95;;;;;;;8.83;50.08;97698.87;4427512;32;20424;-82
2023/12/20 07:39:17;;;;;;;;;;;;;;;8.82;48.74;97704.88;4441122;32;20115;-83
2023/12/20 07:41:44;;;;;;;119.47;47.70;;;;;;;8.85;48.58;97709.94;4441460;32;20665;-81
2023/12/20 07:44:12;;;;;;;127.68;48.87;;;;;;;9.33;46.96;97719.06;4441729;32;20089;-81
2023/12/20 07:46:39;;;;;;;95.05;40.17;;;;;;;9.71;46.47;97711.41;4441049;32;20109;-81
2023/12/20 07:49:06;;;;;;;80.80;35.10;;;;;;;9.96;45.95;97722.28;4441163;32;20098;-81
2023/12/20 07:51:33;;;;;;;54.45;25.88;;;;;;;9.46;46.16;97716.78;4440961;32;20169;-81
2023/12/20 07:54:00;;;;;;;55.25;25.33;;;;;;;9.67;45.58;97726.12;4426800;32;20146;-82
2023/12/20 07:56:26;;;;;;;;;;;;;;;10.16;45.16;97721.34;4441293;32;20097;-73
2023/12/20 07:58:53;;;;;;;42.92;21.48;;;;;;;10.15;44.98;97712.78;4441028;32;19993;-75
2023/12/20 08:01:23;;;;;;;41.20;20.27;;;;;;;9.72;46.07;97720.81;4440772;32;20153;-75
2023/12/20 08:03:50;;;;;;;44.70;21.83;;;;;;;10.07;45.57;97720.03;4440989;32;20085;-76
2023/12/20 08:06:18;;;;;;;64.18;30.90;;;;;;;9.76;46.84;97709.44;4441071;32;20097;-80
2023/12/20 08:08:45;;;;;;;93.07;44.47;;;;;;;9.80;47.65;97698.94;4441616;32;20123;-82
2023/12/20 08:11:20;;;;;;;102.93;47.60;;;;;;;9.69;49.70;97710.62;4440818;32;20093;-82
2023/12/20 08:13:47;;;;;;;108.12;52.80;;;;;;;10.46;49.66;97701.06;4441062;32;20089;-80
2023/12/20 08:16:15;;;;;;;104.12;51.10;;;;;;;11.08;49.44;97704.91;4440695;32;20118;-81
2023/12/20 08:18:42;;;;;;;52.90;26.40;;;;;;;10.05;52.48;97714.13;4441240;32;20111;-82
2023/12/20 08:21:09;;;;;;;58.40;31.55;;;;;;;10.48;48.02;97717.31;4440677;32;20089;-82
2023/12/20 08:23:36;;;;;;;71.35;36.90;;;;;;;10.92;47.40;97719.47;4441375;32;20178;-82
2023/12/20 08:26:07;;;;;;;68.62;34.47;;;;;;;11.37;47.93;97715.50;4441908;32;20444;-82
2023/12/20 08:28:36;;;;;;;91.45;44.15;;;;;;;11.66;46.78;97719.16;4441699;32;20119;-82
2023/12/20 08:31:03;;;;;;;75.32;39.00;;;;;;;11.51;47.21;97720.81;4428247;32;20432;-83
2023/12/20 08:33:31;;;;;;;57.10;30.45;;;;;;;12.26;46.01;97730.63;4442628;32;20100;-84
2023/12/20 08:35:58;;;;;;;50.55;26.12;;;;;;;11.37;47.56;97723.25;4440369;32;20093;-82
2023/12/20 08:38:25;;;;;;;61.88;32.08;;;;;;;10.72;49.81;97717.88;4440510;32;20113;-84
2023/12/20 08:40:51;;;;;;;;;;;;;;;11.81;48.29;97727.00;4450937;26;20349;-82
2023/12/20 08:43:18;;;;;;;43.72;20.75;;;;;;;10.70;50.02;97723.09;4440457;32;19973;-80
2023/12/20 08:45:45;;;;;;;40.40;21.60;;;;;;;11.17;49.42;97714.78;4440457;32;20456;-81
2023/12/20 08:48:12;;;;;;;45.35;22.92;;;;;;;11.42;49.99;97718.69;4440373;32;20112;-79
2023/12/20 08:50:40;;;;;;;57.35;28.15;;;;;;;11.50;50.30;97713.97;4440561;32;20089;-81
2023/12/20 08:53:07;;;;;;;46.28;24.52;;;;;;;12.61;49.64;97714.87;4440420;32;20085;-81
2023/12/20 08:55:33;;;;;;;;;;;;;;;13.38;45.86;97722.53;4440516;32;20159;-83
2023/12/20 08:58:00;;;;;;;41.37;20.70;;;;;;;12.39;48.40;97733.38;4440771;32;20332;-81
2023/12/20 09:00:27;;;;;;;36.45;19.83;;;;;;;12.21;49.46;97722.25;4440005;32;20143;-83
2023/12/20 09:02:54;;;;;;;35.58;19.17;;;;;;;12.64;48.80;97730.25;4440091;32;20368;-83
2023/12/20 09:05:22;;;;;;;37.55;20.33;;;;;;;12.49;49.75;97721.59;4440498;32;20167;-83
2023/12/20 09:07:49;;;;;;;38.42;20.73;;;;;;;13.35;48.84;97717.53;4440560;32;20108;-83
2023/12/20 09:10:21;;;;;;;42.05;21.73;;;;;;;13.84;48.36;97719.78;4440009;32;20121;-84
2023/12/20 09:12:50;;;;;;;41.70;22.48;;;;;;;15.02;46.54;97721.78;4440626;32;20073;-84
2023/12/20 09:15:17;;;;;;;44.30;23.05;;;;;;;15.76;45.56;97716.88;4440228;32;20098;-82
2023/12/20 09:17:44;;;;;;;41.65;22.65;;;;;;;16.54;43.91;97699.16;4413846;32;20125;-83
2023/12/20 09:20:13;;;;;;;35.33;20.30;;;;;;;17.39;41.86;97702.44;4440264;32;20148;-83
2023/12/20 09:22:41;;;;;;;34.38;20.40;;;;;;;17.88;38.91;97696.09;4440374;32;20077;-81
2023/12/20 09:25:10;;;;;;;21.50;11.85;;;;;;;18.85;38.97;97694.47;4439844;32;20492;-83
2023/12/20 09:27:37;;;;;;;20.70;11.57;;;;;;;15.83;40.84;97700.72;4440396;32;20094;-82
2023/12/20 09:30:05;;;;;;;29.70;18.15;;;;;;;13.48;45.35;97702.09;4440572;32;20081;-83
2023/12/20 09:32:32;;;;;;;32.80;19.90;;;;;;;12.70;48.95;97698.84;4439820;32;20085;-82
2023/12/20 09:34:59;;;;;;;25.80;15.75;;;;;;;12.58;49.69;97697.78;4440386;32;20138;-81
2023/12/20 09:37:27;;;;;;;23.83;13.77;;;;;;;12.71;49.83;97697.91;4439903;32;20121;-81
2023/12/20 09:39:55;;;;;;;21.37;10.43;;;;;;;13.48;48.48;97702.91;4439679;32;20154;-80
2023/12/20 09:42:38;;;;;;;19.48;10.35;;;;;;;13.76;47.18;97712.47;4440140;32;20428;-81
2023/12/20 09:45:08;;;;;;;20.77;10.68;;;;;;;13.41;48.19;97711.16;4425709;32;20381;-83
2023/12/20 09:47:35;;;;;;;22.65;11.85;;;;;;;14.26;46.02;97705.91;4439894;32;20523;-82
2023/12/20 09:50:03;;;;;;;22.92;11.60;;;;;;;13.31;48.71;97711.72;4441397;32;20062;-81
2023/12/20 09:52:30;;;;;;;21.87;11.20;;;;;;;12.27;52.84;97709.00;4440010;32;20092;-81
2023/12/20 09:54:57;;;;;;;23.92;10.55;;;;;;;12.19;52.27;97713.75;4439704;32;20185;-80
2023/12/20 09:57:24;;;;;;;18.98;10.60;;;;;;;12.66;51.38;97705.97;4441746;32;20101;-81
2023/12/20 09:59:51;;;;;;;18.45;9.10;;;;;;;12.66;50.92;97697.38;4439381;32;20104;-82
2023/12/20 10:02:21;;;;;;;15.38;7.18;;;;;;;12.75;50.79;97694.22;4439822;32;20086;-81
2023/12/20 10:04:48;;;;;;;14.57;6.95;;;;;;;13.39;48.47;97687.06;4425872;32;20113;-81
2023/12/20 10:07:15;;;;;;;15.93;7.20;;;;;;;13.37;49.08;97681.16;4439497;32;20108;-82
2023/12/20 10:09:42;;;;;;;14.55;7.35;;;;;;;15.37;44.89;97686.56;4439830;32;20085;-83
2023/12/20 10:12:10;;;;;;;13.48;6.82;;;;;;;15.84;42.71;97676.37;4427189;32;20073;-82
2023/12/20 10:14:38;;;;;;;14.48;7.20;;;;;;;13.87;46.83;97667.72;4441428;32;20098;-82
2023/12/20 10:17:06;;;;;;;14.18;7.10;;;;;;;14.50;46.61;97672.41;4442944;32;20445;-81
2023/12/20 10:19:33;;;;;;;14.15;6.40;;;;;;;13.27;50.01;97662.72;4441317;32;20131;-82
2023/12/20 10:22:00;;;;;;;12.50;4.47;;;;;;;11.88;52.55;97665.44;4442018;32;20478;-82
2023/12/20 10:24:30;;;;;;;10.48;4.37;;;;;;;12.12;53.78;97660.69;4428239;32;20105;-82
2023/12/20 10:27:08;;;;;;;10.38;3.97;;;;;;;13.23;51.82;97661.25;4442229;32;20780;-81
2023/12/20 10:29:36;;;;;;;10.00;3.83;;;;;;;14.03;48.86;97665.81;4427904;32;20184;-81
2023/12/20 10:32:24;;;;;;;7.80;3.28;;;;;;;13.70;50.82;97658.38;4441512;32;20368;-81
2023/12/20 10:34:52;;;;;;;7.68;2.97;;;;;;;14.12;48.18;97659.22;4441158;32;20086;-81
2023/12/20 10:37:20;;;;;;;8.60;3.28;;;;;;;13.50;49.41;97656.16;4427805;32;20106;-82
2023/12/20 10:39:55;;;;;;;8.52;3.30;;;;;;;13.56;50.85;97654.03;4427138;32;20120;-82
2023/12/20 10:42:22;;;;;;;7.68;2.85;;;;;;;14.08;48.08;97656.00;4441316;32;20450;-82
2023/12/20 10:44:51;;;;;;;8.38;2.90;;;;;;;13.32;51.09;97653.78;4441420;32;20164;-80
2023/12/20 10:47:19;;;;;;;7.57;2.85;;;;;;;13.66;50.12;97648.31;4441456;32;20101;-81
2023/12/20 10:49:47;;;;;;;7.93;3.03;;;;;;;13.51;48.14;97637.13;4441300;32;20173;-82
2023/12/20 10:52:16;;;;;;;5.20;2.05;;;;;;;12.99;49.80;97635.88;4427529;32;20103;-82
2023/12/20 10:54:45;;;;;;;6.47;2.42;;;;;;;13.14;49.35;97628.09;4441066;32;20085;-82
2023/12/20 10:57:12;;;;;;;8.10;2.62;;;;;;;12.80;50.57;97619.72;4427367;32;20124;-81
2023/12/20 10:59:39;;;;;;;5.53;1.92;;;;;;;13.14;49.45;97628.94;4427475;32;20085;-82
2023/12/20 11:02:06;;;;;;;7.85;2.70;;;;;;;13.75;48.27;97627.00;4441059;32;20081;-83
2023/12/20 11:04:53;;;;;;;5.55;1.87;;;;;;;13.41;48.84;97621.31;4441387;32;20112;-82
2023/12/20 11:07:37;;;;;;;5.60;2.00;;;;;;;13.23;49.94;97631.00;4441499;32;20144;-82
2023/12/20 11:10:20;;;;;;;5.03;1.92;;;;;;;12.28;50.93;97625.31;4426980;32;20081;-81
2023/12/20 11:13:17;;;;;;;5.72;2.20;;;;;;;11.35;53.20;97586.44;4427422;32;20082;-80
2023/12/20 11:15:44;;;;;;;4.80;2.05;;;;;;;12.13;52.02;97608.06;4427052;32;20166;-81
2023/12/20 11:18:11;;;;;;;7.40;2.10;;;;;;;12.13;52.08;97616.66;4427486;32;20743;-81
2023/12/20 11:20:40;;;;;;;5.12;2.03;;;;;;;12.09;52.51;97614.31;4441083;32;20081;-80
2023/12/20 11:23:08;;;;;;;6.03;2.03;;;;;;;12.57;51.21;97604.72;4440543;32;20517;-79
2023/12/20 11:25:59;;;;;;;5.35;2.10;;;;;;;12.22;52.29;97619.62;4427197;32;20117;-81
2023/12/20 11:28:27;;;;;;;5.50;2.03;;;;;;;12.53;51.66;97614.38;4427381;32;20105;-80
2023/12/20 11:30:55;;;;;;;5.10;1.90;;;;;;;12.65;50.37;97605.94;4440434;32;20392;-81
2023/12/20 11:33:26;;;;;;;5.97;2.25;;;;;;;10.76;55.34;97616.19;4427137;32;20077;-80
2023/12/20 11:35:57;;;;;;;7.00;2.58;;;;;;;10.96;55.53;97592.78;4441156;32;20163;-80
2023/12/20 11:38:24;;;;;;;6.22;2.30;;;;;;;11.88;53.90;97619.75;4440846;32;20093;-80
2023/12/20 11:40:54;;;;;;;6.90;2.62;;;;;;;11.85;54.25;97616.50;4440896;32;20081;-81
2023/12/20 11:43:37;;;;;;;7.55;2.70;;;;;;;12.30;52.43;97618.28;4441084;32;20078;-83